Terminal Aerodrome Forecast
Issued by NWS

Home | Current Version | Previous Version | Text Only | Print | Product List | Glossary On
Versions: 1 2 3 4 5 6 7 8 9 10 11 12 13 14 15
944
FTUS41 KBTV 052340
TAFMPV
TAF
KMPV 052340Z 0600/0624 00000KT P6SM BKN020
      TEMPO 0604/0607 3SM -SN BR OVC008
     FM060700 32006KT 3SM -SN BR OVC008
     FM061400 VRB03KT P6SM BKN015
     FM061600 00000KT P6SM BKN040=

USA.gov is the U.S. government's official web portal to all federal, state and local government web resources and services.